• Join FlightAware (Why Join?)
  • Login
  • US Flag 
07:31PM EDT


 

Airport Tracker/Info


-or-


 

Live Flight TrackerFlight Track Log ✈ KAP927 ✈ 02-May-2013 ✈ KALB - KOGS

Flight Track Log - Related Links

Times and Time Zones

All times are in EDT time to prevent confusion due to time zone crossing. See the KAP927 flight status page for this flight to view local times or setup timezone preferences in your user account.

Time Position Orientation Groundspeed Altitude Reporting Facility
EDT Latitude Longitude Course Direction KTS MPH feet Rate Location/Type
02:30PM 42.7922 -73.8153 326° Northwest 117 135 1,500  Level Boston Center
02:31PM 42.8211 -73.8414 326° Northwest 117 135 2,000 420 Climbing Boston Center
02:32PM 42.8519 -73.8675 328° Northwest 120 138 2,500 480 Climbing Boston Center
02:33PM 42.8808 -73.8881 332° Northwest 118 136 3,100 600 Climbing Boston Center
02:34PM 42.9058 -73.9083 329° Northwest 118 136 3,700 480 Climbing Boston Center
02:35PM 42.9344 -73.9375 323° Northwest 125 144 4,100 300 Climbing Boston Center
02:36PM 42.9656 -73.9636 328° Northwest 133 153 4,400 180 Climbing Boston Center
02:37PM 42.9986 -73.9844 335° Northwest 158 182 4,500 180 Climbing Boston Center
02:38PM 43.0500 -74.0283 328° Northwest 163 188 4,900 360 Climbing Boston Center
02:39PM 43.0789 -74.0547 326° Northwest 151 174 5,300 540 Climbing Boston Center
02:41PM 43.1322 -74.0989 329° Northwest 148 170 6,200 420 Climbing Boston Center
02:42PM 43.1633 -74.1253 328° Northwest 142 163 6,500 180 Climbing Boston Center
02:43PM 43.2044 -74.1606 328° Northwest 148 170 6,600  Climbing Boston Center
02:44PM 43.2372 -74.1928 324° Northwest 156 180 6,500 -60 Descending Boston Center
02:45PM 43.2783 -74.2283 328° Northwest 156 180 6,500  Level Boston Center
02:46PM 43.3114 -74.2578 327° Northwest 156 180 6,600  Climbing Boston Center
02:47PM 43.3442 -74.2844 329° Northwest 156 180 6,500 -60 Descending Boston Center
02:48PM 43.3853 -74.3200 328° Northwest 156 180 6,500  Level Boston Center
02:49PM 43.4264 -74.3583 326° Northwest 156 180 6,500 60 Level Boston Center
02:50PM 43.4633 -74.3881 330° Northwest 156 180 6,700  Climbing Boston Center
02:51PM 43.5022 -74.4239 326° Northwest 161 185 6,500 -60 Descending Boston Center
02:52PM 43.5394 -74.4536 330° Northwest 161 185 6,600  Climbing Boston Center
02:53PM 43.5783 -74.4892 326° Northwest 166 191 6,500 -60 Descending Boston Center
02:54PM 43.6133 -74.5164 331° Northwest 160 184 6,500  Level Boston Center
02:55PM 43.6481 -74.5461 328° Northwest 160 184 6,500  Level Boston Center
02:56PM 43.6831 -74.5761 328° Northwest 154 177 6,500  Level Boston Center
02:57PM 43.7200 -74.6061 330° Northwest 154 177 6,600  Climbing Boston Center
02:58PM 43.7569 -74.6392 327° Northwest 154 177 6,500 -60 Descending Boston Center
02:59PM 43.7939 -74.6692 330° Northwest 154 177 6,500  Level Boston Center
03:00PM 43.8306 -74.6994 329° Northwest 154 177 6,500  Level Boston Center
03:01PM 43.8675 -74.7325 327° Northwest 154 177 6,600  Climbing Boston Center
03:02PM 43.9064 -74.7686 326° Northwest 154 177 6,500 -60 Descending Boston Center
03:03PM 43.9433 -74.8017 327° Northwest 154 177 6,500  Level Boston Center
03:04PM 43.9822 -74.8350 328° Northwest 154 177 6,500  Level Boston Center
03:05PM 44.0192 -74.8653 329° Northwest 159 183 6,500  Level Boston Center
03:06PM 44.0581 -74.8986 328° Northwest 164 189 6,500  Level Boston Center
03:07PM 44.0947 -74.9319 327° Northwest 164 189 6,500  Level Boston Center
03:08PM 44.1314 -74.9653 327° Northwest 164 189 6,600  Climbing Boston Center
03:09PM 44.1703 -75.0017 326° Northwest 164 189 6,600 -240 Level Boston Center
03:10PM 44.2133 -75.0383 329° Northwest 164 189 6,200 -420 Descending Boston Center
03:11PM 44.2564 -75.0692 333° Northwest 169 194 5,800 -600 Descending Boston Center
03:12PM 44.2992 -75.1089 326° Northwest 169 194 5,100 -600 Descending Boston Center
03:13PM 44.3381 -75.1425 328° Northwest 169 194 4,600 -480 Descending Boston Center
03:14PM 44.3831 -75.1764 332° Northwest 169 194 4,200 -300 Descending Boston Center
03:15PM 44.4197 -75.2103 327° Northwest 169 194 4,000 -300 Descending Boston Center
03:16PM 44.4586 -75.2439 328° Northwest 169 194 3,600 -420 Descending Boston Center
03:17PM 44.5014 -75.2781 330° Northwest 164 189 3,200 -300 Descending Boston Center
03:18PM 44.5442 -75.3208 325° Northwest 164 189 3,000 -240 Descending Boston Center